Time;durP1;ratioP1;P1;durP2;ratioP2;P2;SDS_P1;SDS_P2;PMS_P1;PMS_P2;Temp;Humidity;BMP_temperature;BMP_pressure;BME280_temperature;BME280_humidity;BME280_pressure;Samples;Min_cycle;Max_cycle;Signal;HPM_P1;HPM_P2
2023/07/18 00:01:31;;;;;;;5.20;2.67;;;;;;;14.61;100.00;101726.16;5082320;28;20051;-57
2023/07/18 00:03:58;;;;;;;7.55;2.95;;;;;;;14.55;100.00;101733.53;5082416;28;20097;-55
2023/07/18 00:06:24;;;;;;;8.68;2.40;;;;;;;14.50;100.00;101734.63;5084472;28;20598;-55
2023/07/18 00:08:51;;;;;;;8.30;2.95;;;;;;;14.50;100.00;101734.63;5085791;28;20052;-55
2023/07/18 00:11:18;;;;;;;5.68;3.47;;;;;;;14.47;100.00;101740.09;5087857;28;20132;-55
2023/07/18 00:13:44;;;;;;;4.70;2.55;;;;;;;14.44;100.00;101739.38;5097519;28;20060;-56
2023/07/18 00:16:11;;;;;;;7.25;3.00;;;;;;;14.41;100.00;101743.00;5087986;28;20135;-56
2023/07/18 00:18:38;;;;;;;8.20;3.20;;;;;;;14.47;100.00;101745.41;5090406;28;20092;-56
2023/07/18 00:21:05;;;;;;;5.93;2.45;;;;;;;14.32;100.00;101746.13;5080717;28;20056;-56
2023/07/18 00:23:32;;;;;;;12.63;3.78;;;;;;;14.27;100.00;101750.75;5090546;28;20048;-56
2023/07/18 00:25:58;;;;;;;7.68;3.00;;;;;;;14.29;100.00;101756.91;5080015;28;20056;-56
2023/07/18 00:28:25;;;;;;;6.35;3.08;;;;;;;14.24;100.00;101748.25;5087472;28;20591;-56
2023/07/18 00:30:51;;;;;;;5.70;3.08;;;;;;;14.19;100.00;101758.22;5081040;28;20127;-56
2023/07/18 00:33:18;;;;;;;6.35;2.75;;;;;;;14.13;100.00;101757.56;5085849;28;20068;-56
2023/07/18 00:35:44;;;;;;;8.20;2.50;;;;;;;14.17;100.00;101765.41;5101825;28;20062;-56
2023/07/18 00:38:14;;;;;;;8.27;3.00;;;;;;;14.08;100.00;101764.88;5091971;28;20040;-56
2023/07/18 00:40:41;;;;;;;8.30;3.28;;;;;;;14.08;100.00;101770.19;5081071;28;20066;-56
2023/07/18 00:43:14;;;;;;;10.52;3.25;;;;;;;14.04;100.00;101771.28;5083158;28;20547;-56
2023/07/18 00:45:47;;;;;;;9.60;4.40;;;;;;;14.06;100.00;101766.75;5081543;28;20143;-56
2023/07/18 00:48:14;;;;;;;6.57;3.15;;;;;;;14.06;100.00;101771.22;5088190;28;20044;-56
2023/07/18 00:50:41;;;;;;;4.85;3.15;;;;;;;14.04;100.00;101768.63;5086956;28;20147;-56
2023/07/18 00:53:08;;;;;;;5.35;3.30;;;;;;;14.01;100.00;101768.75;5088610;28;20609;-56
2023/07/18 00:55:35;;;;;;;5.60;2.72;;;;;;;13.97;100.00;101763.63;5082767;28;20076;-56
2023/07/18 00:58:03;;;;;;;7.20;3.05;;;;;;;13.89;100.00;101761.31;5096041;28;20044;-55
2023/07/18 01:00:29;;;;;;;5.80;2.80;;;;;;;13.89;100.00;101769.28;5085632;28;20131;-55
2023/07/18 01:02:56;;;;;;;6.18;3.30;;;;;;;13.83;100.00;101765.09;5091330;28;20135;-55
2023/07/18 01:05:22;;;;;;;5.70;2.75;;;;;;;13.77;100.00;101771.53;5087519;28;20476;-55
2023/07/18 01:07:49;;;;;;;6.07;2.90;;;;;;;13.84;100.00;101763.31;5097229;28;20570;-55
2023/07/18 01:10:23;;;;;;;4.05;2.30;;;;;;;13.79;100.00;101759.97;5087314;28;20048;-55
2023/07/18 01:12:52;;;;;;;8.85;2.55;;;;;;;13.76;100.00;101764.50;5076150;28;20094;-55
2023/07/18 01:15:22;;;;;;;7.47;3.33;;;;;;;13.72;100.00;101767.34;5088720;28;20047;-55
2023/07/18 01:17:49;;;;;;;8.68;3.70;;;;;;;13.72;100.00;101767.34;5085308;28;20059;-56
2023/07/18 01:20:22;;;;;;;4.53;2.65;;;;;;;13.61;100.00;101762.50;5079642;28;20109;-55
2023/07/18 01:22:51;;;;;;;6.90;3.22;;;;;;;13.55;100.00;101765.41;5074859;28;20044;-55
2023/07/18 01:25:19;;;;;;;9.05;3.13;;;;;;;13.52;100.00;101757.59;5079669;28;20593;-55
2023/07/18 01:27:47;;;;;;;8.35;3.45;;;;;;;13.48;100.00;101763.94;5082953;28;20056;-55
2023/07/18 01:30:17;;;;;;;7.22;3.60;;;;;;;13.45;100.00;101769.38;5079481;28;20496;-55
2023/07/18 01:32:44;;;;;;;9.07;3.30;;;;;;;13.40;100.00;101773.09;5085567;28;20055;-55
2023/07/18 01:35:10;;;;;;;4.45;2.58;;;;;;;13.42;100.00;101777.47;5084237;28;20058;-55
2023/07/18 01:37:38;;;;;;;10.80;3.60;;;;;;;13.38;100.00;101777.59;5085110;28;20124;-57
2023/07/18 01:40:08;;;;;;;7.72;3.70;;;;;;;13.31;100.00;101773.44;5090755;28;20448;-55
2023/07/18 01:42:35;;;;;;;10.17;3.50;;;;;;;13.30;100.00;101778.81;5081414;28;20062;-57
2023/07/18 01:45:04;;;;;;;6.03;2.60;;;;;;;13.26;100.00;101788.69;5080234;28;20295;-55
2023/07/18 01:47:31;;;;;;;6.30;3.08;;;;;;;13.23;100.00;101791.47;5075932;28;20050;-56
2023/07/18 01:50:03;;;;;;;9.38;3.33;;;;;;;13.18;100.00;101788.13;5087339;28;20063;-56
2023/07/18 01:52:33;;;;;;;6.18;4.13;;;;;;;13.14;100.00;101782.09;5080717;28;20087;-55
2023/07/18 01:55:02;;;;;;;6.47;3.42;;;;;;;13.14;100.00;101783.84;5084579;28;20496;-55
2023/07/18 01:57:36;;;;;;;7.72;3.50;;;;;;;13.11;100.00;101786.63;5080466;28;20078;-56
2023/07/18 02:00:04;;;;;;;6.68;2.88;;;;;;;13.09;100.00;101796.47;5086005;28;20043;-56
2023/07/18 02:02:31;;;;;;;5.72;3.25;;;;;;;13.09;100.00;101799.13;5087770;28;20550;-56
2023/07/18 02:04:58;;;;;;;5.97;3.13;;;;;;;13.06;100.00;101793.91;5082032;28;20040;-56
2023/07/18 02:07:25;;;;;;;10.73;4.18;;;;;;;13.03;100.00;101795.78;5083915;28;20048;-56
2023/07/18 02:09:52;;;;;;;5.75;3.20;;;;;;;13.06;100.00;101799.22;5080036;28;20098;-56
2023/07/18 02:12:19;;;;;;;6.13;3.55;;;;;;;13.02;100.00;101799.34;5088075;28;20591;-56
2023/07/18 02:14:46;;;;;;;8.90;4.20;;;;;;;13.05;100.00;101793.06;5081377;28;20393;-56
2023/07/18 02:17:12;;;;;;;12.77;5.18;;;;;;;13.01;100.00;101792.34;5081000;28;20049;-55
2023/07/18 02:19:39;;;;;;;9.15;3.70;;;;;;;13.00;100.00;101795.03;5076608;28;20058;-56
2023/07/18 02:22:05;;;;;;;7.88;3.35;;;;;;;12.94;100.00;101806.75;5082531;28;20491;-56
2023/07/18 02:24:32;;;;;;;10.55;4.53;;;;;;;12.93;100.00;101805.03;5081398;28;20052;-56
2023/07/18 02:26:58;;;;;;;7.40;4.00;;;;;;;12.87;100.00;101826.50;5078328;28;20485;-56
2023/07/18 02:29:25;;;;;;;9.35;3.97;;;;;;;12.89;100.00;101827.28;5086777;28;20044;-56
2023/07/18 02:31:51;;;;;;;6.35;3.40;;;;;;;12.90;100.00;101830.78;5082192;28;20044;-55
2023/07/18 02:34:19;;;;;;;9.10;3.50;;;;;;;12.81;100.00;101826.72;5086906;28;20044;-56
2023/07/18 02:36:45;;;;;;;9.10;5.35;;;;;;;12.77;100.00;101830.44;5070416;28;20488;-56
2023/07/18 02:39:12;;;;;;;5.15;3.40;;;;;;;12.78;100.00;101829.47;5086841;28;20054;-55
2023/07/18 02:41:38;;;;;;;10.80;3.60;;;;;;;12.89;100.00;101829.09;5075819;28;20127;-56
2023/07/18 02:44:05;;;;;;;7.53;3.65;;;;;;;12.92;100.00;101828.97;5085765;28;20492;-55
2023/07/18 02:46:32;;;;;;;5.85;4.03;;;;;;;12.85;100.00;101828.34;5082284;28;20151;-56
2023/07/18 02:48:58;;;;;;;6.28;3.55;;;;;;;12.87;100.00;101821.19;5082572;28;20106;-56
2023/07/18 02:51:25;;;;;;;9.63;4.32;;;;;;;12.78;100.00;101829.47;5088584;28;20507;-56
2023/07/18 02:53:52;;;;;;;6.97;4.20;;;;;;;12.84;100.00;101829.25;5080638;28;20049;-56
2023/07/18 02:56:18;;;;;;;9.27;4.70;;;;;;;12.80;100.00;101835.59;5098942;28;20032;-56
2023/07/18 02:58:46;;;;;;;13.90;4.55;;;;;;;12.76;100.00;101826.03;5089162;28;20352;-56
2023/07/18 03:01:12;;;;;;;7.57;3.60;;;;;;;12.78;100.00;101829.47;5091556;28;20646;-55
2023/07/18 03:03:40;;;;;;;7.93;4.38;;;;;;;12.66;100.00;101829.00;5085429;28;20052;-56
2023/07/18 03:06:09;;;;;;;8.05;3.65;;;;;;;12.66;100.00;101831.66;5091471;28;20052;-56
2023/07/18 03:08:36;;;;;;;9.80;4.20;;;;;;;12.67;100.00;101836.06;5091068;28;20040;-56
2023/07/18 03:11:06;;;;;;;5.53;3.53;;;;;;;12.64;100.00;101836.16;5091239;28;20048;-56
2023/07/18 03:13:32;;;;;;;10.45;5.63;;;;;;;12.63;100.00;101839.75;5079534;28;20058;-56
2023/07/18 03:15:59;;;;;;;8.70;4.43;;;;;;;12.64;100.00;101852.09;5091729;28;20052;-56
2023/07/18 03:18:26;;;;;;;7.15;3.70;;;;;;;12.63;100.00;101852.13;5091113;28;20301;-56
2023/07/18 03:20:52;;;;;;;10.70;5.05;;;;;;;12.61;100.00;101861.94;5102727;28;20079;-56
2023/07/18 03:23:19;;;;;;;14.38;4.53;;;;;;;12.61;100.00;101856.66;5091515;28;20052;-56
2023/07/18 03:25:46;;;;;;;11.68;5.05;;;;;;;12.58;100.00;101857.59;5085931;28;20055;-56
2023/07/18 03:28:13;;;;;;;9.00;4.10;;;;;;;12.61;100.00;101861.94;5081315;28;20732;-56
2023/07/18 03:30:40;;;;;;;7.43;3.70;;;;;;;12.61;100.00;101851.34;5083565;28;20414;-55
2023/07/18 03:33:06;;;;;;;11.43;4.63;;;;;;;12.62;100.00;101850.41;5088394;28;20052;-56
2023/07/18 03:35:34;;;;;;;8.93;4.40;;;;;;;12.62;100.00;101851.28;5086562;28;20662;-56
2023/07/18 03:38:00;;;;;;;9.40;4.82;;;;;;;12.62;100.00;101853.94;5094266;28;20044;-56
2023/07/18 03:40:27;;;;;;;10.07;4.55;;;;;;;12.61;100.00;101857.50;5093274;28;20108;-55
2023/07/18 03:42:53;;;;;;;12.98;6.47;;;;;;;12.64;100.00;101860.03;5106201;28;20044;-56
2023/07/18 03:45:20;;;;;;;11.88;4.85;;;;;;;12.66;100.00;101849.38;5084816;28;20376;-56
2023/07/18 03:47:47;;;;;;;11.60;4.18;;;;;;;12.66;100.00;101850.22;5091628;28;20050;-56
2023/07/18 03:50:16;;;;;;;7.90;4.80;;;;;;;12.66;100.00;101868.81;5089998;28;20060;-56
2023/07/18 03:52:43;;;;;;;11.75;5.07;;;;;;;12.64;100.00;101857.41;5091421;28;20052;-56
2023/07/18 03:55:09;;;;;;;10.70;5.35;;;;;;;12.67;100.00;101856.44;5088709;28;20135;-56
2023/07/18 03:57:36;;;;;;;10.57;4.28;;;;;;;12.67;100.00;101857.28;5090609;28;20563;-55
2023/07/18 04:00:12;;;;;;;8.77;4.68;;;;;;;12.62;100.00;101859.25;5090760;28;20590;-56
2023/07/18 04:02:42;;;;;;;9.38;4.30;;;;;;;12.73;100.00;101860.63;5094133;28;20052;-56
2023/07/18 04:05:13;;;;;;;7.28;4.38;;;;;;;12.75;100.00;101864.06;5106045;28;20127;-56
2023/07/18 04:07:41;;;;;;;8.10;4.70;;;;;;;12.74;100.00;101860.56;5096438;28;20051;-56
2023/07/18 04:10:08;;;;;;;8.20;4.45;;;;;;;12.77;100.00;101856.97;5092009;28;20513;-56
2023/07/18 04:12:35;;;;;;;7.80;4.88;;;;;;;12.83;100.00;101851.38;5091038;28;20507;-56
2023/07/18 04:15:02;;;;;;;9.35;5.65;;;;;;;12.82;100.00;101861.16;5090330;28;20044;-55
2023/07/18 04:17:28;;;;;;;7.75;4.30;;;;;;;12.86;100.00;101856.59;5091077;28;20055;-55
2023/07/18 04:19:57;;;;;;;9.02;5.32;;;;;;;12.89;100.00;101856.47;5091650;28;20084;-55
2023/07/18 04:22:24;;;;;;;9.93;4.57;;;;;;;12.92;100.00;101856.38;5083482;28;20495;-55
2023/07/18 04:24:53;;;;;;;8.68;4.45;;;;;;;12.98;100.00;101850.84;5086135;28;20105;-55
2023/07/18 04:27:20;;;;;;;8.75;4.75;;;;;;;12.95;100.00;101855.41;5089657;28;20040;-55
2023/07/18 04:29:48;;;;;;;7.88;4.72;;;;;;;12.99;100.00;101852.53;5087835;28;20069;-55
2023/07/18 04:32:16;;;;;;;11.15;4.55;;;;;;;13.09;100.00;101857.50;5090284;28;20419;-55
2023/07/18 04:34:43;;;;;;;10.80;5.07;;;;;;;13.08;100.00;101846.03;5083612;28;20139;-55
2023/07/18 04:37:09;;;;;;;15.90;4.90;;;;;;;13.15;100.00;101851.97;5089913;28;20048;-55
2023/07/18 04:39:36;;;;;;;9.60;6.00;;;;;;;13.08;100.00;101855.75;5083577;28;20044;-55
2023/07/18 04:42:03;;;;;;;11.60;4.65;;;;;;;13.18;100.00;101851.84;5089986;28;20610;-55
2023/07/18 04:44:30;;;;;;;8.85;4.13;;;;;;;13.20;100.00;101850.00;5088503;28;20044;-56
2023/07/18 04:46:57;;;;;;;13.98;4.97;;;;;;;13.27;100.00;101846.16;5090512;28;20043;-56
2023/07/18 04:49:24;;;;;;;14.63;4.57;;;;;;;13.32;100.00;101854.88;5075458;28;20135;-57
2023/07/18 04:51:52;;;;;;;10.93;4.13;;;;;;;13.31;100.00;101846.94;5090313;28;20541;-56
2023/07/18 04:54:18;;;;;;;11.75;5.70;;;;;;;13.42;100.00;101843.84;5080814;28;20094;-57
2023/07/18 04:56:45;;;;;;;15.35;5.05;;;;;;;13.44;100.00;101857.94;5090009;28;20114;-56
2023/07/18 04:59:11;;;;;;;10.55;5.28;;;;;;;13.56;100.00;101857.44;5089744;28;20697;-56
2023/07/18 05:01:40;;;;;;;10.55;5.43;;;;;;;13.59;100.00;101847.56;5084709;28;20052;-56
2023/07/18 05:04:06;;;;;;;11.10;4.80;;;;;;;13.56;100.00;101853.00;5080125;28;20048;-56
2023/07/18 05:06:33;;;;;;;11.48;5.28;;;;;;;13.67;100.00;101852.56;5083572;28;20098;-56
2023/07/18 05:08:59;;;;;;;13.75;5.65;;;;;;;13.57;100.00;101864.50;5093650;28;20066;-55
2023/07/18 05:11:26;;;;;;;13.50;5.25;;;;;;;13.61;100.00;101860.78;5084441;28;20048;-55
2023/07/18 05:13:53;;;;;;;11.27;5.65;;;;;;;13.67;100.00;101855.22;5070564;28;20642;-55
2023/07/18 05:16:19;;;;;;;10.55;4.82;;;;;;;13.74;100.00;101851.38;5083325;28;20478;-55
2023/07/18 05:18:46;;;;;;;10.60;5.85;;;;;;;13.77;100.00;101848.59;5089826;28;20139;-55
2023/07/18 05:21:13;;;;;;;9.65;5.38;;;;;;;13.71;100.00;101861.28;5089420;28;20051;-56
2023/07/18 05:23:40;;;;;;;13.63;6.03;;;;;;;13.88;100.00;101853.47;5090149;28;20090;-56
2023/07/18 05:26:08;;;;;;;10.45;4.65;;;;;;;13.98;100.00;101859.25;5089295;28;20131;-56
2023/07/18 05:28:35;;;;;;;11.75;4.75;;;;;;;13.95;100.00;101854.06;5089901;28;20116;-56
2023/07/18 05:31:10;;;;;;;11.20;5.20;;;;;;;14.08;100.00;101843.78;5085932;28;20062;-56
2023/07/18 05:33:37;;;;;;;10.75;4.93;;;;;;;14.18;100.00;101844.25;5089833;28;20143;-56
2023/07/18 05:36:04;;;;;;;11.23;4.82;;;;;;;14.20;100.00;101842.38;5083637;28;20140;-55
2023/07/18 05:38:30;;;;;;;10.63;5.72;;;;;;;14.19;100.00;101838.88;5081515;28;20041;-56
2023/07/18 05:40:57;;;;;;;11.57;4.70;;;;;;;14.16;100.00;101846.13;5085066;28;20072;-56
2023/07/18 05:43:24;;;;;;;14.90;7.00;;;;;;;14.37;100.00;101837.19;5081155;28;20052;-56
2023/07/18 05:45:50;;;;;;;13.45;5.68;;;;;;;14.39;100.00;101834.47;5088881;28;20109;-55
2023/07/18 05:48:17;;;;;;;8.60;3.80;;;;;;;14.61;100.00;101831.72;5085547;28;20052;-55
2023/07/18 05:50:43;;;;;;;10.00;4.97;;;;;;;14.65;100.00;101828.00;5089483;28;20056;-55
2023/07/18 05:53:10;;;;;;;14.50;5.45;;;;;;;14.74;100.00;101827.56;5074415;28;20586;-55
2023/07/18 05:55:38;;;;;;;10.70;5.25;;;;;;;14.84;100.00;101828.88;5092947;28;20044;-56
2023/07/18 05:58:04;;;;;;;14.52;4.68;;;;;;;14.88;100.00;101823.44;5077777;28;20074;-55
2023/07/18 06:00:31;;;;;;;22.02;5.85;;;;;;;15.00;100.00;101830.81;5086634;28;20127;-55
2023/07/18 06:02:57;;;;;;;13.68;5.78;;;;;;;15.07;100.00;101824.25;5085759;28;20048;-55
2023/07/18 06:05:25;;;;;;;16.00;5.10;;;;;;;14.93;100.00;101830.25;5094310;28;20043;-57
2023/07/18 06:07:51;;;;;;;16.45;5.88;;;;;;;15.03;100.00;101828.00;5091840;28;20051;-56
2023/07/18 06:10:18;;;;;;;12.35;4.55;;;;;;;15.19;100.00;101820.16;5082632;28;20048;-55
2023/07/18 06:12:45;;;;;;;24.40;5.85;;;;;;;15.38;100.00;101822.78;5083064;28;20460;-55
2023/07/18 06:15:11;;;;;;;15.38;4.63;;;;;;;15.40;100.00;101823.59;5085637;28;20127;-55
2023/07/18 06:17:38;;;;;;;12.40;5.22;;;;;;;15.49;100.00;101824.94;5088326;28;20498;-56
2023/07/18 06:20:09;;;;;;;18.05;4.97;;;;;;;15.50;100.00;101824.84;5085845;28;20043;-55
2023/07/18 06:22:36;;;;;;;;;;;;;;;15.57;100.00;101823.59;5088484;28;20488;-55
2023/07/18 06:25:02;;;;;;;11.43;4.72;;;;;;;15.52;100.00;101820.31;5086706;28;19995;-55
2023/07/18 06:27:29;;;;;;;9.13;4.95;;;;;;;15.75;100.00;101815.63;5090983;28;20112;-55
2023/07/18 06:29:56;;;;;;;21.95;6.53;;;;;;;15.71;100.00;101822.03;5084995;28;20040;-57
2023/07/18 06:32:23;;;;;;;15.23;5.00;;;;;;;15.74;100.00;101819.22;5089392;28;20051;-56
2023/07/18 06:34:50;;;;;;;12.32;5.90;;;;;;;15.82;100.00;101811.72;5087598;28;20063;-55
2023/07/18 06:37:17;;;;;;;11.27;4.75;;;;;;;16.17;100.00;101814.41;5087125;28;20048;-56
2023/07/18 06:39:44;;;;;;;13.68;4.47;;;;;;;16.38;100.00;101806.19;5067606;28;20045;-56
2023/07/18 06:42:10;;;;;;;8.18;4.25;;;;;;;16.50;100.00;101813.56;5074401;28;20074;-56
2023/07/18 06:44:38;;;;;;;10.90;4.68;;;;;;;16.39;100.00;101810.59;5079162;28;20490;-56
2023/07/18 06:47:04;;;;;;;14.52;4.80;;;;;;;16.40;100.00;101812.34;5078443;28;20076;-56
2023/07/18 06:49:31;;;;;;;9.15;5.18;;;;;;;16.27;100.00;101818.31;5087816;28;20056;-56
2023/07/18 06:51:58;;;;;;;11.68;5.07;;;;;;;16.31;100.00;101819.00;5086257;28;20075;-56
2023/07/18 06:54:24;;;;;;;9.38;5.20;;;;;;;16.30;100.00;101812.81;5091128;28;20150;-55
2023/07/18 06:56:51;;;;;;;8.95;5.18;;;;;;;16.28;100.00;101814.72;5075128;28;20059;-56
2023/07/18 06:59:17;;;;;;;14.70;4.97;;;;;;;16.60;100.00;101819.25;5086534;28;20583;-55
2023/07/18 07:01:44;;;;;;;11.80;4.88;;;;;;;16.76;100.00;101819.28;5074861;28;20373;-56
2023/07/18 07:04:10;;;;;;;10.50;4.35;;;;;;;16.82;100.00;101813.59;5087356;28;20048;-56
2023/07/18 07:06:41;;;;;;;10.50;4.20;;;;;;;16.94;100.00;101815.63;5085985;28;20102;-56
2023/07/18 07:09:10;;;;;;;10.85;4.75;;;;;;;17.18;100.00;101809.84;5084193;28;20083;-56
2023/07/18 07:11:36;;;;;;;10.80;5.35;;;;;;;17.08;100.00;101798.81;5073735;28;20095;-56
2023/07/18 07:14:05;;;;;;;6.68;3.92;;;;;;;17.24;100.00;101804.16;5079772;28;20060;-55
2023/07/18 07:16:32;;;;;;;16.88;5.72;;;;;;;17.17;100.00;101797.44;5086282;28;20055;-56
2023/07/18 07:18:59;;;;;;;14.98;5.03;;;;;;;17.21;100.00;101804.31;5079493;28;20048;-56
2023/07/18 07:21:27;;;;;;;11.25;5.10;;;;;;;17.26;100.00;101810.25;5088155;28;20112;-55
2023/07/18 07:23:54;;;;;;;12.40;4.82;;;;;;;17.16;100.00;101795.72;5087941;28;20139;-57
2023/07/18 07:26:24;;;;;;;10.02;3.72;;;;;;;17.48;100.00;101806.38;5087138;28;20048;-55
2023/07/18 07:28:50;;;;;;;8.82;4.72;;;;;;;17.33;100.00;101803.63;5087555;28;20044;-55
2023/07/18 07:31:17;;;;;;;10.75;4.80;;;;;;;17.48;100.00;101803.72;5087125;28;20056;-55
2023/07/18 07:33:44;;;;;;;6.28;3.83;;;;;;;17.67;100.00;101806.16;5087061;28;20048;-55
2023/07/18 07:36:11;;;;;;;11.35;4.55;;;;;;;17.66;100.00;101805.28;5090761;28;20048;-56
2023/07/18 07:38:37;;;;;;;10.93;4.07;;;;;;;17.88;100.00;101798.69;5090886;28;20095;-57
2023/07/18 07:41:05;;;;;;;11.32;4.05;;;;;;;17.94;100.00;101787.63;5090987;28;20268;-56
2023/07/18 07:43:31;;;;;;;9.32;5.00;;;;;;;18.10;100.00;101793.78;5091150;28;20105;-57
2023/07/18 07:45:59;;;;;;;10.68;3.97;;;;;;;18.35;100.00;101792.25;5091374;28;20052;-56
2023/07/18 07:48:26;;;;;;;11.88;4.70;;;;;;;18.42;100.00;101785.59;5090843;28;20177;-55
2023/07/18 07:50:52;;;;;;;12.60;4.03;;;;;;;18.48;100.00;101782.50;5090596;28;20139;-56
2023/07/18 07:53:19;;;;;;;8.75;3.38;;;;;;;18.53;100.00;101779.53;5090921;28;20074;-56
2023/07/18 07:55:45;;;;;;;9.20;3.95;;;;;;;18.89;100.00;101780.88;5091065;28;20116;-55
2023/07/18 07:58:12;;;;;;;7.45;3.28;;;;;;;18.87;100.00;101769.41;5090920;28;20150;-55
2023/07/18 08:00:38;;;;;;;9.48;3.38;;;;;;;19.01;100.00;101779.19;5090541;28;20048;-55
2023/07/18 08:03:05;;;;;;;8.77;3.67;;;;;;;19.03;100.00;101777.31;5090588;28;20143;-55
2023/07/18 08:05:31;;;;;;;10.90;3.15;;;;;;;18.88;100.00;101763.94;5089304;28;20384;-55
2023/07/18 08:07:58;;;;;;;11.75;2.95;;;;;;;19.50;100.00;101765.25;5090818;28;20084;-55
2023/07/18 08:10:24;;;;;;;8.20;3.78;;;;;;;19.20;100.00;101763.63;5090447;28;20066;-55
2023/07/18 08:12:51;;;;;;;8.48;3.00;;;;;;;19.41;100.00;101760.50;5090516;28;20125;-55
2023/07/18 08:15:19;;;;;;;9.35;3.05;;;;;;;19.30;100.00;101753.16;5090682;28;20447;-56
2023/07/18 08:17:45;;;;;;;8.45;2.58;;;;;;;19.74;100.00;101761.84;5090460;28;20043;-55
2023/07/18 08:20:12;;;;;;;7.25;3.03;;;;;;;19.68;100.00;101754.22;5090312;28;20051;-55
2023/07/18 08:22:39;;;;;;;5.55;2.42;;;;;;;19.28;100.00;101756.94;5090454;28;20048;-56
2023/07/18 08:25:06;;;;;;;10.32;2.55;;;;;;;19.54;100.00;101753.34;5090128;28;20051;-55
2023/07/18 08:27:33;;;;;;;12.30;2.53;;;;;;;19.20;100.00;101752.91;5090235;28;20464;-55
2023/07/18 08:29:59;;;;;;;9.68;2.92;;;;;;;19.83;100.00;101745.16;5090283;28;20139;-56
2023/07/18 08:32:26;;;;;;;18.55;3.22;;;;;;;20.02;100.00;101743.88;5090288;28;20440;-56
2023/07/18 08:34:55;;;;;;;5.88;2.15;;;;;;;20.10;100.00;101731.63;5090248;28;20084;-56
2023/07/18 08:37:22;;;;;;;4.82;2.33;;;;;;;19.88;100.00;101740.34;5090108;28;20052;-56
2023/07/18 08:39:48;;;;;;;8.00;2.30;;;;;;;19.84;100.00;101740.66;5089963;28;20312;-56
2023/07/18 08:42:19;;;;;;;6.53;3.08;;;;;;;19.88;100.00;101736.78;5089790;28;20043;-56
2023/07/18 08:44:49;;;;;;;12.52;2.33;;;;;;;19.66;100.00;101734.69;5090110;28;20138;-56
2023/07/18 08:47:16;;;;;;;8.73;1.90;;;;;;;19.78;100.00;101729.38;5088729;28;20052;-56
2023/07/18 08:49:43;;;;;;;5.35;1.98;;;;;;;20.03;100.00;101724.16;5089729;28;20058;-56
2023/07/18 08:52:10;;;;;;;7.63;3.08;;;;;;;20.29;100.00;101731.19;5089628;28;20056;-57
2023/07/18 08:54:37;;;;;;;7.85;2.58;;;;;;;20.29;100.00;101716.94;5089957;28;20048;-56
2023/07/18 08:57:05;;;;;;;10.25;2.28;;;;;;;20.31;100.00;101715.81;5089070;28;20200;-56
2023/07/18 08:59:32;;;;;;;4.70;1.70;;;;;;;20.70;100.00;101719.31;5089512;28;20075;-56
2023/07/18 09:01:58;;;;;;;9.13;1.85;;;;;;;20.24;100.00;101711.88;5089232;28;20123;-56
2023/07/18 09:04:25;;;;;;;7.78;3.05;;;;;;;20.36;100.00;101708.28;5089786;28;20087;-55
2023/07/18 09:07:00;;;;;;;13.88;2.78;;;;;;;20.30;100.00;101706.06;5089133;28;20211;-55
2023/07/18 09:09:27;;;;;;;9.00;2.35;;;;;;;20.26;100.00;101699.19;5089437;28;20048;-55
2023/07/18 09:12:00;;;;;;;5.80;2.58;;;;;;;20.29;100.00;101712.41;5089056;28;20048;-56
2023/07/18 09:14:32;;;;;;;7.45;2.40;;;;;;;20.20;100.00;101702.31;5089169;28;20075;-56
2023/07/18 09:17:03;;;;;;;9.68;2.42;;;;;;;20.23;100.00;101703.94;5089621;28;20048;-56
2023/07/18 09:19:41;;;;;;;16.33;2.45;;;;;;;20.67;100.00;101692.66;5090359;28;20246;-56
2023/07/18 09:22:09;;;;;;;5.50;1.63;;;;;;;20.50;100.00;101695.72;5089149;28;20048;-55
2023/07/18 09:24:36;;;;;;;8.57;2.40;;;;;;;20.56;100.00;101687.19;5089011;28;20086;-55
2023/07/18 09:27:17;;;;;;;2.60;1.25;;;;;;;20.39;100.00;101687.59;5088869;28;20223;-55
2023/07/18 09:29:48;;;;;;;4.27;1.67;;;;;;;20.70;100.00;101694.28;5088689;28;20063;-55
2023/07/18 09:32:24;;;;;;;4.70;1.75;;;;;;;20.62;100.00;101689.44;5088787;28;20288;-56
2023/07/18 09:34:56;;;;;;;8.80;1.52;;;;;;;20.94;100.00;101688.94;5088793;28;20102;-55
2023/07/18 09:37:23;;;;;;;4.03;1.60;;;;;;;20.81;100.00;101682.72;5087673;28;20131;-55
2023/07/18 09:39:50;;;;;;;5.30;1.65;;;;;;;20.92;100.00;101690.84;5088425;28;20040;-56
2023/07/18 09:42:18;;;;;;;3.70;1.48;;;;;;;21.28;100.00;101683.66;5089043;28;20048;-56
2023/07/18 09:44:48;;;;;;;5.00;1.48;;;;;;;21.49;100.00;101677.66;5088600;28;20065;-57
2023/07/18 09:47:17;;;;;;;7.82;1.88;;;;;;;21.73;100.00;101686.50;5088164;28;20113;-56
2023/07/18 09:49:45;;;;;;;3.03;1.40;;;;;;;21.89;100.00;101666.44;5088148;28;20502;-57
2023/07/18 09:52:12;;;;;;;9.98;2.08;;;;;;;22.15;100.00;101676.00;5088678;28;20567;-56
2023/07/18 09:54:39;;;;;;;9.63;1.73;;;;;;;22.43;100.00;101673.81;5088605;28;20047;-55
2023/07/18 09:57:10;;;;;;;4.90;1.45;;;;;;;22.79;100.00;101668.19;5088437;28;20438;-57
2023/07/18 09:59:38;;;;;;;5.53;1.65;;;;;;;22.30;100.00;101670.41;5088660;28;20147;-56
2023/07/18 10:02:10;;;;;;;4.70;1.25;;;;;;;21.94;100.00;101661.59;5089212;28;20072;-56
2023/07/18 10:04:38;;;;;;;5.43;2.05;;;;;;;22.14;100.00;101662.66;5089377;28;20139;-55
2023/07/18 10:07:08;;;;;;;8.40;2.03;;;;;;;22.27;100.00;101658.00;5089217;28;20048;-57
2023/07/18 10:09:36;;;;;;;5.45;2.28;;;;;;;21.54;100.00;101654.78;5089772;28;20048;-56
2023/07/18 10:12:03;;;;;;;9.50;2.05;;;;;;;22.32;100.00;101655.81;5089242;28;20044;-56
2023/07/18 10:14:29;;;;;;;4.80;1.27;;;;;;;22.35;100.00;101654.72;5089230;28;20052;-56
2023/07/18 10:17:05;;;;;;;9.43;2.40;;;;;;;21.96;100.00;101659.63;5089718;28;20067;-57
2023/07/18 10:19:47;;;;;;;5.57;1.85;;;;;;;22.19;100.00;101650.53;5088481;28;20101;-56
2023/07/18 10:22:31;;;;;;;3.03;1.67;;;;;;;22.67;99.39;101643.13;5088232;28;20059;-56
2023/07/18 10:25:17;;;;;;;8.55;2.08;;;;;;;22.51;95.64;101641.72;5087895;28;20388;-56
2023/07/18 10:27:45;;;;;;;3.60;1.33;;;;;;;23.16;93.52;101633.63;5088721;28;20056;-56
2023/07/18 10:30:15;;;;;;;8.73;1.55;;;;;;;22.91;91.32;101630.28;5088046;28;20044;-55
2023/07/18 10:32:53;;;;;;;5.90;2.17;;;;;;;22.77;86.83;101636.00;5087689;28;20538;-56
2023/07/18 10:35:26;;;;;;;5.15;1.65;;;;;;;22.77;90.62;101619.84;5088077;28;20048;-56
2023/07/18 10:38:03;;;;;;;2.88;1.35;;;;;;;22.98;85.88;101616.28;5087811;28;20056;-56
2023/07/18 10:40:39;;;;;;;4.28;1.67;;;;;;;23.34;82.12;101614.16;5087523;28;20075;-57
2023/07/18 10:43:09;;;;;;;2.47;1.05;;;;;;;23.35;81.11;101621.28;5087803;28;20144;-57
2023/07/18 10:45:39;;;;;;;3.53;1.27;;;;;;;23.62;81.90;101609.91;5087644;28;20109;-57
2023/07/18 10:48:20;;;;;;;5.93;1.23;;;;;;;23.63;81.65;101609.78;5087566;28;20058;-56
2023/07/18 10:50:47;;;;;;;19.48;2.15;;;;;;;24.07;79.05;101601.47;5087700;28;20095;-56
2023/07/18 10:53:18;;;;;;;4.45;1.63;;;;;;;24.19;73.05;101594.09;5087815;28;20135;-56
2023/07/18 10:55:46;;;;;;;4.32;1.23;;;;;;;24.39;68.62;101595.00;5086479;28;20048;-56
2023/07/18 10:58:20;;;;;;;5.13;1.40;;;;;;;23.72;71.99;101593.75;5087593;28;20620;-56
2023/07/18 11:00:48;;;;;;;5.82;1.73;;;;;;;23.13;75.52;101596.16;5087155;28;20044;-56
2023/07/18 11:03:34;;;;;;;3.92;1.17;;;;;;;25.22;61.42;101597.25;5087685;28;20052;-56
2023/07/18 11:06:05;;;;;;;5.88;1.38;;;;;;;26.33;55.60;101578.44;5087452;28;20052;-56
2023/07/18 11:08:32;;;;;;;8.47;1.80;;;;;;;26.79;50.52;101576.53;5087495;28;20087;-56
2023/07/18 11:10:59;;;;;;;2.30;1.10;;;;;;;27.21;46.68;101577.69;5090271;28;20078;-56
2023/07/18 11:13:30;;;;;;;6.30;1.13;;;;;;;26.32;45.81;101579.47;5091846;28;20491;-56
2023/07/18 11:16:07;;;;;;;3.80;1.77;;;;;;;27.22;45.06;101566.69;5091394;28;20048;-56
2023/07/18 11:18:36;;;;;;;4.88;1.58;;;;;;;28.18;43.14;101562.94;5091383;28;20056;-57